Accueil
METAR-TAF:

METAR-TAF

Aéroports :

Hagåtña, Guam, États-Unis

Aéroport international Antonio-B.-Won-Pat de Guam

latitude: 13-29N, longitude: 144-48E, altitude: 91 m

Observation

Le bulletin a été fait il y a 53 minutes, à 07:54 UTC
Vent 5 kt de sud/sud-est
Température 29°C
Humidité 84%
Pression 1009 hPa
Visibilité: 16.1 km
Quelques nuages à une hauteur de 1600 ft

METAR: PGUM 240754Z 16005KT 10SM FEW016 29/26 A2981 RMK AO2 SLP086 T02890256

Heure: 18:47 (08:47 UTC)

Prévision

Le bulletin a été fait il y a 3 heures et 23 minutes, à 05:24 UTC
Prévision valable du 24 à 06 UTC au 25 à 12 UTC
Vent 9 kt de sud/sud-est
Visibilité: 10 km
Quelques nuages à une hauteur de 1800 ft
Nuages épars à une hauteur de 4000 ft
averses à proximité

TAF: PGUM 240524Z 2406/2512 15009KT P6SM VCSH FEW018 SCT040

Observations et prévisions météorologiques de plus de 4000 aéroports (messages METAR et TAF).

Les stations disponibles sont représentées par des disques jaunes et rouges sur la carte.

Passer la souris dessus pour voir le nom de la station.

Cliquer dessus pour voir les observations et prévisions météorologiques.

Pour changer de carte: cliquez sur les boutons verts avec une croix noire pour zoomer, sur le bouton vert avec un tiret pour effectuer un zoom arrière, ou sur les flèches vertes pour les cartes adjacentes.


METAR-TAF: